sensor_id;sensor_type;location;lat;lon;timestamp;pressure;altitude;pressure_sealevel;temperature;humidity
30682;BME280;17439;48.092;11.842;2023-02-14T00:00:49;97244.97;;;3.39;67.98
30682;BME280;17439;48.092;11.842;2023-02-14T00:03:15;97246.00;;;3.38;67.78
30682;BME280;17439;48.092;11.842;2023-02-14T00:05:42;97250.34;;;3.39;68.18
30682;BME280;17439;48.092;11.842;2023-02-14T00:08:09;97254.84;;;3.38;67.97
30682;BME280;17439;48.092;11.842;2023-02-14T00:10:35;97250.34;;;3.39;68.02
30682;BME280;17439;48.092;11.842;2023-02-14T00:13:03;97233.03;;;3.35;67.98
30682;BME280;17439;48.092;11.842;2023-02-14T00:15:29;97235.94;;;3.33;67.89
30682;BME280;17439;48.092;11.842;2023-02-14T00:17:56;97236.75;;;3.34;67.80
30682;BME280;17439;48.092;11.842;2023-02-14T00:20:23;97231.00;;;3.30;67.86
30682;BME280;17439;48.092;11.842;2023-02-14T00:22:49;97237.19;;;3.31;67.79
30682;BME280;17439;48.092;11.842;2023-02-14T00:25:16;97235.56;;;3.30;67.62
30682;BME280;17439;48.092;11.842;2023-02-14T00:27:43;97230.19;;;3.30;67.78
30682;BME280;17439;48.092;11.842;2023-02-14T00:30:11;97220.50;;;3.29;67.67
30682;BME280;17439;48.092;11.842;2023-02-14T00:32:39;97224.44;;;3.26;67.88
30682;BME280;17439;48.092;11.842;2023-02-14T00:35:06;97219.75;;;3.21;67.05
30682;BME280;17439;48.092;11.842;2023-02-14T00:37:34;97221.53;;;3.27;67.47
30682;BME280;17439;48.092;11.842;2023-02-14T00:40:00;97225.28;;;3.26;67.54
30682;BME280;17439;48.092;11.842;2023-02-14T00:42:27;97236.00;;;3.26;67.49
30682;BME280;17439;48.092;11.842;2023-02-14T00:44:54;97236.81;;;3.27;67.54
30682;BME280;17439;48.092;11.842;2023-02-14T00:47:20;97250.00;;;3.29;67.48
30682;BME280;17439;48.092;11.842;2023-02-14T00:49:47;97245.66;;;3.27;67.27
30682;BME280;17439;48.092;11.842;2023-02-14T00:52:13;97239.72;;;3.25;67.32
30682;BME280;17439;48.092;11.842;2023-02-14T00:54:40;97241.81;;;3.23;67.42
30682;BME280;17439;48.092;11.842;2023-02-14T00:57:07;97233.16;;;3.21;67.58
30682;BME280;17439;48.092;11.842;2023-02-14T00:59:34;97232.78;;;3.18;67.48
30682;BME280;17439;48.092;11.842;2023-02-14T01:02:02;97232.53;;;3.19;67.56
30682;BME280;17439;48.092;11.842;2023-02-14T01:04:29;97229.28;;;3.17;67.86
30682;BME280;17439;48.092;11.842;2023-02-14T01:06:56;97226.00;;;3.15;67.67
30682;BME280;17439;48.092;11.842;2023-02-14T01:09:22;97227.84;;;3.15;67.52
30682;BME280;17439;48.092;11.842;2023-02-14T01:11:49;97224.94;;;3.16;67.60
30682;BME280;17439;48.092;11.842;2023-02-14T01:14:15;97238.97;;;3.18;67.47
30682;BME280;17439;48.092;11.842;2023-02-14T01:16:42;97234.63;;;3.17;67.18
30682;BME280;17439;48.092;11.842;2023-02-14T01:19:09;97235.66;;;3.16;67.20
30682;BME280;17439;48.092;11.842;2023-02-14T01:21:35;97244.34;;;3.18;67.01
30682;BME280;17439;48.092;11.842;2023-02-14T01:24:05;97264.13;;;3.17;66.89
30682;BME280;17439;48.092;11.842;2023-02-14T01:26:34;97265.38;;;3.15;66.78
30682;BME280;17439;48.092;11.842;2023-02-14T01:29:01;97262.91;;;3.13;67.01
30682;BME280;17439;48.092;11.842;2023-02-14T01:31:30;97257.16;;;3.09;67.04
30682;BME280;17439;48.092;11.842;2023-02-14T01:33:58;97253.06;;;3.07;67.31
30682;BME280;17439;48.092;11.842;2023-02-14T01:36:37;97261.34;;;3.05;67.21
30682;BME280;17439;48.092;11.842;2023-02-14T01:39:10;97257.22;;;3.03;66.80
30682;BME280;17439;48.092;11.842;2023-02-14T01:41:39;97259.47;;;3.06;67.22
30682;BME280;17439;48.092;11.842;2023-02-14T01:46:54;97259.69;;;3.04;67.21
30682;BME280;17439;48.092;11.842;2023-02-14T01:49:24;97258.03;;;3.03;67.15
30682;BME280;17439;48.092;11.842;2023-02-14T01:51:57;97258.25;;;3.02;67.23
30682;BME280;17439;48.092;11.842;2023-02-14T01:54:28;97255.56;;;3.02;67.49
30682;BME280;17439;48.092;11.842;2023-02-14T01:57:00;97256.41;;;3.02;67.16
30682;BME280;17439;48.092;11.842;2023-02-14T01:59:33;97254.16;;;2.99;67.24
30682;BME280;17439;48.092;11.842;2023-02-14T02:02:03;97247.16;;;2.98;67.39
30682;BME280;17439;48.092;11.842;2023-02-14T02:04:42;97258.31;;;2.95;66.87
30682;BME280;17439;48.092;11.842;2023-02-14T02:07:13;97246.56;;;2.96;67.39
30682;BME280;17439;48.092;11.842;2023-02-14T02:09:46;97244.69;;;2.97;67.49
30682;BME280;17439;48.092;11.842;2023-02-14T02:12:14;97243.88;;;2.96;67.74
30682;BME280;17439;48.092;11.842;2023-02-14T02:14:42;97236.06;;;2.95;67.89
30682;BME280;17439;48.092;11.842;2023-02-14T02:25:57;97226.97;;;2.96;68.06
30682;BME280;17439;48.092;11.842;2023-02-14T02:40:04;97228.78;;;3.02;67.89
30682;BME280;17439;48.092;11.842;2023-02-14T02:42:38;97221.19;;;2.99;67.18
30682;BME280;17439;48.092;11.842;2023-02-14T02:47:57;97218.72;;;2.97;67.49
30682;BME280;17439;48.092;11.842;2023-02-14T02:50:40;97218.72;;;2.97;67.36
30682;BME280;17439;48.092;11.842;2023-02-14T02:53:22;97224.91;;;2.98;67.50
30682;BME280;17439;48.092;11.842;2023-02-14T02:56:04;97221.41;;;2.97;67.41
30682;BME280;17439;48.092;11.842;2023-02-14T02:58:38;97219.34;;;2.99;67.85
30682;BME280;17439;48.092;11.842;2023-02-14T03:01:15;97217.69;;;2.98;67.84
30682;BME280;17439;48.092;11.842;2023-02-14T03:03:45;97215.59;;;3.00;67.84
30682;BME280;17439;48.092;11.842;2023-02-14T03:06:13;97214.78;;;3.00;68.21
30682;BME280;17439;48.092;11.842;2023-02-14T03:08:40;97220.75;;;3.02;68.33
30682;BME280;17439;48.092;11.842;2023-02-14T03:11:10;97210.25;;;3.00;67.87
30682;BME280;17439;48.092;11.842;2023-02-14T03:13:54;97214.78;;;3.00;67.49
30682;BME280;17439;48.092;11.842;2023-02-14T03:16:39;97212.19;;;2.93;67.27
30682;BME280;17439;48.092;11.842;2023-02-14T03:24:43;97204.06;;;3.00;67.62
30682;BME280;17439;48.092;11.842;2023-02-14T03:27:20;97214.78;;;3.00;67.58
30682;BME280;17439;48.092;11.842;2023-02-14T03:29:55;97206.53;;;3.01;67.70
30682;BME280;17439;48.092;11.842;2023-02-14T03:32:44;97218.06;;;3.02;67.53
30682;BME280;17439;48.092;11.842;2023-02-14T03:35:32;97213.75;;;3.01;67.70
30682;BME280;17439;48.092;11.842;2023-02-14T03:40:59;97220.97;;;3.00;68.08
30682;BME280;17439;48.092;11.842;2023-02-14T03:43:32;97216.88;;;2.98;67.94
30682;BME280;17439;48.092;11.842;2023-02-14T03:46:24;97210.31;;;2.94;67.06
30682;BME280;17439;48.092;11.842;2023-02-14T03:48:55;97215.66;;;2.94;67.89
30682;BME280;17439;48.092;11.842;2023-02-14T03:51:25;97217.31;;;2.95;68.21
30682;BME280;17439;48.092;11.842;2023-02-14T03:53:55;97217.09;;;2.96;67.81
30682;BME280;17439;48.092;11.842;2023-02-14T03:56:33;97225.94;;;2.97;67.55
30682;BME280;17439;48.092;11.842;2023-02-14T03:59:13;97226.75;;;2.97;67.40
30682;BME280;17439;48.092;11.842;2023-02-14T04:04:11;97223.84;;;2.99;67.96
30682;BME280;17439;48.092;11.842;2023-02-14T04:06:40;97226.31;;;3.00;67.88
30682;BME280;17439;48.092;11.842;2023-02-14T04:09:06;97221.81;;;3.01;68.11
30682;BME280;17439;48.092;11.842;2023-02-14T04:11:33;97217.25;;;3.01;68.02
30682;BME280;17439;48.092;11.842;2023-02-14T04:14:01;97214.34;;;3.03;68.22
30682;BME280;17439;48.092;11.842;2023-02-14T04:16:28;97222.19;;;3.04;68.17
30682;BME280;17439;48.092;11.842;2023-02-14T04:18:54;97223.56;;;3.07;68.15
30682;BME280;17439;48.092;11.842;2023-02-14T04:21:21;97215.78;;;3.05;67.88
30682;BME280;17439;48.092;11.842;2023-02-14T04:23:48;97222.19;;;3.04;68.00
30682;BME280;17439;48.092;11.842;2023-02-14T04:26:14;97219.28;;;3.06;67.90
30682;BME280;17439;48.092;11.842;2023-02-14T04:28:41;97206.09;;;3.04;68.16
30682;BME280;17439;48.092;11.842;2023-02-14T04:31:07;97207.34;;;3.02;67.83
30682;BME280;17439;48.092;11.842;2023-02-14T04:33:34;97206.53;;;3.01;68.11
30682;BME280;17439;48.092;11.842;2023-02-14T04:36:01;97200.38;;;3.01;67.95
30682;BME280;17439;48.092;11.842;2023-02-14T04:38:27;97197.91;;;2.99;68.22
30682;BME280;17439;48.092;11.842;2023-02-14T04:40:54;97197.91;;;2.99;68.30
30682;BME280;17439;48.092;11.842;2023-02-14T04:43:21;97196.69;;;2.95;68.05
30682;BME280;17439;48.092;11.842;2023-02-14T04:45:47;97203.06;;;2.94;67.84
30682;BME280;17439;48.092;11.842;2023-02-14T04:48:14;97196.09;;;2.93;67.82
30682;BME280;17439;48.092;11.842;2023-02-14T04:50:40;97197.94;;;2.93;67.92
30682;BME280;17439;48.092;11.842;2023-02-14T04:53:07;97193.19;;;2.95;67.85
30682;BME280;17439;48.092;11.842;2023-02-14T04:55:34;97190.53;;;2.95;68.00
30682;BME280;17439;48.092;11.842;2023-02-14T04:58:00;97197.50;;;2.96;68.10
30682;BME280;17439;48.092;11.842;2023-02-14T05:00:27;97183.06;;;2.97;68.22
30682;BME280;17439;48.092;11.842;2023-02-14T05:02:53;97187.41;;;2.98;68.34
30682;BME280;17439;48.092;11.842;2023-02-14T05:05:20;97190.47;;;3.01;68.28
30682;BME280;17439;48.092;11.842;2023-02-14T05:07:47;97185.09;;;3.01;68.17
30682;BME280;17439;48.092;11.842;2023-02-14T05:10:13;97189.66;;;3.01;68.10
30682;BME280;17439;48.092;11.842;2023-02-14T05:12:40;97184.28;;;3.01;67.65
30682;BME280;17439;48.092;11.842;2023-02-14T05:15:07;97191.69;;;2.99;67.64
30682;BME280;17439;48.092;11.842;2023-02-14T05:17:34;97187.41;;;2.98;67.60
30682;BME280;17439;48.092;11.842;2023-02-14T05:20:00;97187.63;;;2.96;67.79
30682;BME280;17439;48.092;11.842;2023-02-14T05:22:27;97190.53;;;2.95;67.70
30682;BME280;17439;48.092;11.842;2023-02-14T05:24:53;97190.97;;;2.92;67.55
30682;BME280;17439;48.092;11.842;2023-02-14T05:27:20;97179.03;;;2.87;67.88
30682;BME280;17439;48.092;11.842;2023-02-14T05:29:47;97186.03;;;2.88;67.91
30682;BME280;17439;48.092;11.842;2023-02-14T05:32:13;97182.53;;;2.88;67.81
30682;BME280;17439;48.092;11.842;2023-02-14T05:34:40;97181.47;;;2.89;67.83
30682;BME280;17439;48.092;11.842;2023-02-14T05:37:06;97184.81;;;2.84;67.51
30682;BME280;17439;48.092;11.842;2023-02-14T05:39:33;97182.97;;;2.85;67.55
30682;BME280;17439;48.092;11.842;2023-02-14T05:42:00;97181.13;;;2.85;67.40
30682;BME280;17439;48.092;11.842;2023-02-14T05:44:26;97179.47;;;2.84;67.57
30682;BME280;17439;48.092;11.842;2023-02-14T05:46:53;97180.31;;;2.85;67.76
30682;BME280;17439;48.092;11.842;2023-02-14T05:49:19;97177.63;;;2.85;67.69
30682;BME280;17439;48.092;11.842;2023-02-14T05:51:46;97179.47;;;2.84;67.78
30682;BME280;17439;48.092;11.842;2023-02-14T05:54:13;97180.31;;;2.85;67.96
30682;BME280;17439;48.092;11.842;2023-02-14T05:56:39;97186.69;;;2.84;67.63
30682;BME280;17439;48.092;11.842;2023-02-14T05:59:06;97183.19;;;2.83;67.86
30682;BME280;17439;48.092;11.842;2023-02-14T06:01:32;97194.13;;;2.82;67.75
30682;BME280;17439;48.092;11.842;2023-02-14T06:03:59;97193.91;;;2.83;67.59
30682;BME280;17439;48.092;11.842;2023-02-14T06:06:26;97198.44;;;2.83;67.86
30682;BME280;17439;48.092;11.842;2023-02-14T06:08:52;97202.75;;;2.84;67.96
30682;BME280;17439;48.092;11.842;2023-02-14T06:11:19;97199.06;;;2.85;67.83
30682;BME280;17439;48.092;11.842;2023-02-14T06:13:45;97202.91;;;2.89;67.31
30682;BME280;17439;48.092;11.842;2023-02-14T06:16:12;97206.41;;;2.89;67.20
30682;BME280;17439;48.092;11.842;2023-02-14T06:18:39;97205.16;;;2.92;66.60
30682;BME280;17439;48.092;11.842;2023-02-14T06:21:05;97219.00;;;2.89;66.49
30682;BME280;17439;48.092;11.842;2023-02-14T06:23:32;97217.81;;;2.85;66.76
30682;BME280;17439;48.092;11.842;2023-02-14T06:25:58;97222.75;;;2.81;67.27
30682;BME280;17439;48.092;11.842;2023-02-14T06:28:25;97217.84;;;2.78;67.51
30682;BME280;17439;48.092;11.842;2023-02-14T06:30:52;97221.56;;;2.77;67.69
30682;BME280;17439;48.092;11.842;2023-02-14T06:33:18;97215.16;;;2.78;68.02
30682;BME280;17439;48.092;11.842;2023-02-14T06:35:45;97224.03;;;2.79;67.94
30682;BME280;17439;48.092;11.842;2023-02-14T06:38:12;97210.41;;;2.80;68.12
30682;BME280;17439;48.092;11.842;2023-02-14T06:40:38;97217.41;;;2.81;68.17
30682;BME280;17439;48.092;11.842;2023-02-14T06:43:05;97210.00;;;2.83;68.23
30682;BME280;17439;48.092;11.842;2023-02-14T06:45:31;97214.91;;;2.86;68.35
30682;BME280;17439;48.092;11.842;2023-02-14T06:47:58;97204.41;;;2.85;68.17
30682;BME280;17439;48.092;11.842;2023-02-14T06:50:25;97203.13;;;2.87;68.25
30682;BME280;17439;48.092;11.842;2023-02-14T06:52:51;97213.84;;;2.87;68.14
30682;BME280;17439;48.092;11.842;2023-02-14T06:55:19;97210.38;;;2.87;67.96
30682;BME280;17439;48.092;11.842;2023-02-14T06:57:45;97214.44;;;2.89;68.22
30682;BME280;17439;48.092;11.842;2023-02-14T07:00:12;97204.34;;;2.92;68.11
30682;BME280;17439;48.092;11.842;2023-02-14T07:02:39;97213.19;;;2.92;68.01
30682;BME280;17439;48.092;11.842;2023-02-14T07:05:06;97215.88;;;2.92;68.09
30682;BME280;17439;48.092;11.842;2023-02-14T07:07:33;97217.75;;;2.92;68.08
30682;BME280;17439;48.092;11.842;2023-02-14T07:09:59;97209.50;;;2.93;68.13
30682;BME280;17439;48.092;11.842;2023-02-14T07:12:26;97205.97;;;2.93;68.10
30682;BME280;17439;48.092;11.842;2023-02-14T07:14:53;97201.22;;;2.95;68.46
30682;BME280;17439;48.092;11.842;2023-02-14T07:17:19;97214.19;;;2.98;68.44
30682;BME280;17439;48.092;11.842;2023-02-14T07:19:46;97213.97;;;2.99;68.51
30682;BME280;17439;48.092;11.842;2023-02-14T07:22:12;97201.41;;;3.00;68.35
30682;BME280;17439;48.092;11.842;2023-02-14T07:24:39;97204.44;;;3.03;68.53
30682;BME280;17439;48.092;11.842;2023-02-14T07:27:05;97200.28;;;3.07;68.53
30682;BME280;17439;48.092;11.842;2023-02-14T07:29:32;97200.66;;;3.11;68.71
30682;BME280;17439;48.092;11.842;2023-02-14T07:31:58;97197.34;;;3.16;68.68
30682;BME280;17439;48.092;11.842;2023-02-14T07:34:25;97194.00;;;3.20;68.30
30682;BME280;17439;48.092;11.842;2023-02-14T07:36:52;97193.56;;;3.23;68.03
30682;BME280;17439;48.092;11.842;2023-02-14T07:39:18;97184.66;;;3.23;67.70
30682;BME280;17439;48.092;11.842;2023-02-14T07:41:45;97183.84;;;3.22;67.79
30682;BME280;17439;48.092;11.842;2023-02-14T07:44:17;97188.19;;;3.23;67.83
30682;BME280;17439;48.092;11.842;2023-02-14T07:46:43;97185.06;;;3.26;68.09
30682;BME280;17439;48.092;11.842;2023-02-14T07:49:10;97184.63;;;3.30;68.02
30682;BME280;17439;48.092;11.842;2023-02-14T07:51:37;97181.28;;;3.34;67.77
30682;BME280;17439;48.092;11.842;2023-02-14T07:54:03;97180.00;;;3.37;67.55
30682;BME280;17439;48.092;11.842;2023-02-14T07:56:30;97180.63;;;3.39;67.45
30682;BME280;17439;48.092;11.842;2023-02-14T07:58:57;97190.88;;;3.42;67.77
30682;BME280;17439;48.092;11.842;2023-02-14T08:01:23;97178.09;;;3.44;67.88
30682;BME280;17439;48.092;11.842;2023-02-14T08:03:50;97183.00;;;3.47;67.96
30682;BME280;17439;48.092;11.842;2023-02-14T08:06:18;97181.72;;;3.50;67.77
30682;BME280;17439;48.092;11.842;2023-02-14T08:08:45;97181.28;;;3.53;67.94
30682;BME280;17439;48.092;11.842;2023-02-14T08:11:12;97176.31;;;3.56;67.95
30682;BME280;17439;48.092;11.842;2023-02-14T08:13:39;97190.31;;;3.58;68.00
30682;BME280;17439;48.092;11.842;2023-02-14T08:16:05;97176.22;;;3.63;68.06
30682;BME280;17439;48.092;11.842;2023-02-14T08:18:35;97174.94;;;3.66;67.79
30682;BME280;17439;48.092;11.842;2023-02-14T08:21:03;97171.00;;;3.68;67.60
30682;BME280;17439;48.092;11.842;2023-02-14T08:23:30;97169.25;;;3.74;67.77
30682;BME280;17439;48.092;11.842;2023-02-14T08:25:57;97164.28;;;3.77;67.77
30682;BME280;17439;48.092;11.842;2023-02-14T08:28:24;97178.66;;;3.83;67.69
30682;BME280;17439;48.092;11.842;2023-02-14T08:30:51;97184.63;;;3.85;67.56
30682;BME280;17439;48.092;11.842;2023-02-14T08:33:19;97175.06;;;3.89;67.80
30682;BME280;17439;48.092;11.842;2023-02-14T08:35:46;97179.97;;;3.92;67.77
30682;BME280;17439;48.092;11.842;2023-02-14T08:38:13;97174.75;;;3.97;67.39
30682;BME280;17439;48.092;11.842;2023-02-14T08:40:39;97171.63;;;4.00;66.97
30682;BME280;17439;48.092;11.842;2023-02-14T08:43:06;97168.72;;;4.02;67.06
30682;BME280;17439;48.092;11.842;2023-02-14T08:45:33;97172.81;;;4.05;67.08
30682;BME280;17439;48.092;11.842;2023-02-14T08:48:05;97168.47;;;4.04;66.24
30682;BME280;17439;48.092;11.842;2023-02-14T08:50:33;97173.03;;;4.03;67.19
30682;BME280;17439;48.092;11.842;2023-02-14T08:53:00;97167.81;;;4.08;67.76
30682;BME280;17439;48.092;11.842;2023-02-14T08:55:27;97171.47;;;4.14;68.06
30682;BME280;17439;48.092;11.842;2023-02-14T08:57:55;97172.63;;;4.18;68.13
30682;BME280;17439;48.092;11.842;2023-02-14T09:00:21;97160.25;;;4.17;65.87
30682;BME280;17439;48.092;11.842;2023-02-14T09:02:51;97165.66;;;4.29;66.86
30682;BME280;17439;48.092;11.842;2023-02-14T09:05:19;97166.63;;;4.34;67.60
30682;BME280;17439;48.092;11.842;2023-02-14T09:07:46;97161.63;;;4.38;67.28
30682;BME280;17439;48.092;11.842;2023-02-14T09:10:13;97160.69;;;4.44;67.63
30682;BME280;17439;48.092;11.842;2023-02-14T09:12:43;97169.69;;;4.50;66.46
30682;BME280;17439;48.092;11.842;2023-02-14T09:15:12;97166.94;;;4.57;67.21
30682;BME280;17439;48.092;11.842;2023-02-14T09:17:39;97169.03;;;4.66;68.07
30682;BME280;17439;48.092;11.842;2023-02-14T09:20:07;97162.25;;;4.76;67.69
30682;BME280;17439;48.092;11.842;2023-02-14T09:22:34;97167.31;;;4.84;67.38
30682;BME280;17439;48.092;11.842;2023-02-14T09:25:01;97174.44;;;4.90;66.96
30682;BME280;17439;48.092;11.842;2023-02-14T09:27:29;97167.31;;;4.96;66.74
30682;BME280;17439;48.092;11.842;2023-02-14T09:29:56;97169.88;;;5.02;66.44
30682;BME280;17439;48.092;11.842;2023-02-14T09:32:22;97167.91;;;5.09;65.62
30682;BME280;17439;48.092;11.842;2023-02-14T09:34:49;97168.25;;;5.13;64.65
30682;BME280;17439;48.092;11.842;2023-02-14T09:37:15;97164.75;;;5.13;64.75
30682;BME280;17439;48.092;11.842;2023-02-14T09:39:42;97166.25;;;5.08;64.67
30682;BME280;17439;48.092;11.842;2023-02-14T09:42:19;97171.53;;;5.03;64.03
30682;BME280;17439;48.092;11.842;2023-02-14T09:47:34;97178.53;;;4.93;65.58
30682;BME280;17439;48.092;11.842;2023-02-14T09:50:32;97170.59;;;4.86;64.77
30682;BME280;17439;48.092;11.842;2023-02-14T09:53:05;97169.16;;;4.83;65.47
30682;BME280;17439;48.092;11.842;2023-02-14T09:55:39;97169.16;;;4.83;65.24
30682;BME280;17439;48.092;11.842;2023-02-14T09:58:21;97160.75;;;4.80;64.23
30682;BME280;17439;48.092;11.842;2023-02-14T10:00:55;97172.69;;;4.84;65.32
30682;BME280;17439;48.092;11.842;2023-02-14T10:03:39;97158.31;;;4.90;64.89
30682;BME280;17439;48.092;11.842;2023-02-14T10:10:19;97157.50;;;5.01;63.70
30682;BME280;17439;48.092;11.842;2023-02-14T10:12:36;97157.16;;;5.09;64.22
30682;BME280;17439;48.092;11.842;2023-02-14T10:15:18;97155.75;;;5.19;64.77
30682;BME280;17439;48.092;11.842;2023-02-14T10:17:54;97158.31;;;5.25;65.32
30682;BME280;17439;48.092;11.842;2023-02-14T10:20:30;97156.06;;;5.34;65.20
30682;BME280;17439;48.092;11.842;2023-02-14T10:26:01;97151.28;;;5.48;64.54
30682;BME280;17439;48.092;11.842;2023-02-14T10:28:43;97154.44;;;5.57;64.65
30682;BME280;17439;48.092;11.842;2023-02-14T10:34:19;97143.88;;;5.67;66.42
30682;BME280;17439;48.092;11.842;2023-02-14T10:36:58;97140.78;;;5.75;65.14
30682;BME280;17439;48.092;11.842;2023-02-14T10:45:02;97132.09;;;5.97;65.48
30682;BME280;17439;48.092;11.842;2023-02-14T10:47:40;97133.84;;;6.03;65.53
30682;BME280;17439;48.092;11.842;2023-02-14T10:58:01;97124.66;;;6.16;65.33
30682;BME280;17439;48.092;11.842;2023-02-14T11:00:34;97124.19;;;6.19;65.03
30682;BME280;17439;48.092;11.842;2023-02-14T11:03:06;97120.75;;;6.24;64.92
30682;BME280;17439;48.092;11.842;2023-02-14T11:05:46;97121.09;;;6.27;64.20
30682;BME280;17439;48.092;11.842;2023-02-14T11:10:45;97105.31;;;6.36;65.99
30682;BME280;17439;48.092;11.842;2023-02-14T11:13:35;97103.56;;;6.42;64.35
30682;BME280;17439;48.092;11.842;2023-02-14T11:16:05;97107.13;;;6.47;65.92
30682;BME280;17439;48.092;11.842;2023-02-14T11:18:32;97104.53;;;6.52;66.21
30682;BME280;17439;48.092;11.842;2023-02-14T11:21:00;97096.53;;;6.58;65.97
30682;BME280;17439;48.092;11.842;2023-02-14T11:23:31;97091.47;;;6.61;64.72
30682;BME280;17439;48.092;11.842;2023-02-14T11:25:58;97088.03;;;6.66;65.53
30682;BME280;17439;48.092;11.842;2023-02-14T11:28:25;97087.31;;;6.70;65.82
30682;BME280;17439;48.092;11.842;2023-02-14T11:30:52;97081.19;;;6.75;65.59
30682;BME280;17439;48.092;11.842;2023-02-14T11:33:29;97083.88;;;6.75;63.22
30682;BME280;17439;48.092;11.842;2023-02-14T11:35:58;97071.69;;;6.72;62.82
30682;BME280;17439;48.092;11.842;2023-02-14T11:38:31;97075.28;;;6.78;63.58
30682;BME280;17439;48.092;11.842;2023-02-14T11:40:58;97072.91;;;6.82;65.12
30682;BME280;17439;48.092;11.842;2023-02-14T11:43:34;97061.81;;;6.78;63.61
30682;BME280;17439;48.092;11.842;2023-02-14T11:49:03;97052.16;;;6.82;64.53
30682;BME280;17439;48.092;11.842;2023-02-14T11:51:37;97054.34;;;6.85;63.91
30682;BME280;17439;48.092;11.842;2023-02-14T11:54:04;97047.34;;;6.84;63.77
30682;BME280;17439;48.092;11.842;2023-02-14T11:56:48;97044.31;;;6.81;63.01
30682;BME280;17439;48.092;11.842;2023-02-14T12:01:47;97036.41;;;6.74;64.69
30682;BME280;17439;48.092;11.842;2023-02-14T12:04:19;97040.69;;;6.70;64.17
30682;BME280;17439;48.092;11.842;2023-02-14T12:06:47;97032.84;;;6.68;65.13
30682;BME280;17439;48.092;11.842;2023-02-14T12:11:56;97031.50;;;6.71;65.42
30682;BME280;17439;48.092;11.842;2023-02-14T12:14:27;97025.06;;;6.72;65.57
30682;BME280;17439;48.092;11.842;2023-02-14T12:17:03;97029.97;;;6.75;65.54
30682;BME280;17439;48.092;11.842;2023-02-14T12:19:56;97018.44;;;6.80;65.26
30682;BME280;17439;48.092;11.842;2023-02-14T12:22:35;97024.94;;;6.84;65.40
30682;BME280;17439;48.092;11.842;2023-02-14T12:25:16;97019.91;;;6.87;65.37
30682;BME280;17439;48.092;11.842;2023-02-14T12:28:00;97007.03;;;6.95;65.99
30682;BME280;17439;48.092;11.842;2023-02-14T12:30:32;97002.84;;;7.04;66.36
30682;BME280;17439;48.092;11.842;2023-02-14T12:33:00;97006.44;;;7.10;66.84
30682;BME280;17439;48.092;11.842;2023-02-14T12:35:52;97000.00;;;7.16;66.67
30682;BME280;17439;48.092;11.842;2023-02-14T12:38:56;97004.16;;;7.23;65.41
30682;BME280;17439;48.092;11.842;2023-02-14T12:47:02;96993.09;;;7.47;65.55
30682;BME280;17439;48.092;11.842;2023-02-14T12:57:56;96978.78;;;7.69;65.54
30682;BME280;17439;48.092;11.842;2023-02-14T13:06:02;96978.38;;;7.87;63.11
30682;BME280;17439;48.092;11.842;2023-02-14T13:14:23;96957.69;;;7.98;64.46
30682;BME280;17439;48.092;11.842;2023-02-14T13:16:56;96959.06;;;8.01;62.71
30682;BME280;17439;48.092;11.842;2023-02-14T13:19:52;96958.84;;;8.07;63.31
30682;BME280;17439;48.092;11.842;2023-02-14T13:22:26;96953.72;;;8.06;63.05
30682;BME280;17439;48.092;11.842;2023-02-14T13:24:57;96952.34;;;8.03;63.32
30682;BME280;17439;48.092;11.842;2023-02-14T13:27:32;96950.41;;;7.98;62.78
30682;BME280;17439;48.092;11.842;2023-02-14T13:30:03;96956.38;;;8.01;63.47
30682;BME280;17439;48.092;11.842;2023-02-14T13:32:39;96939.03;;;7.96;62.41
30682;BME280;17439;48.092;11.842;2023-02-14T13:35:07;96947.19;;;8.02;63.89
30682;BME280;17439;48.092;11.842;2023-02-14T13:37:46;96947.75;;;8.04;63.43
30682;BME280;17439;48.092;11.842;2023-02-14T13:40:18;96949.38;;;8.05;63.69
30682;BME280;17439;48.092;11.842;2023-02-14T13:48:10;96939.25;;;8.22;61.66
30682;BME280;17439;48.092;11.842;2023-02-14T13:50:47;96939.75;;;8.19;62.68
30682;BME280;17439;48.092;11.842;2023-02-14T13:56:03;96935.19;;;8.20;62.23
30682;BME280;17439;48.092;11.842;2023-02-14T13:58:30;96933.28;;;8.20;62.09
30682;BME280;17439;48.092;11.842;2023-02-14T14:20:46;96921.91;;;8.13;61.83
30682;BME280;17439;48.092;11.842;2023-02-14T14:23:27;96921.81;;;8.03;62.21
30682;BME280;17439;48.092;11.842;2023-02-14T14:25:54;96912.94;;;8.07;63.13
30682;BME280;17439;48.092;11.842;2023-02-14T14:28:23;96912.94;;;8.07;63.02
30682;BME280;17439;48.092;11.842;2023-02-14T14:30:50;96909.44;;;8.07;63.23
30682;BME280;17439;48.092;11.842;2023-02-14T14:33:28;96908.91;;;8.10;63.19
30682;BME280;17439;48.092;11.842;2023-02-14T14:36:04;96909.44;;;8.07;62.55
30682;BME280;17439;48.092;11.842;2023-02-14T14:38:45;96912.69;;;8.09;62.70
30682;BME280;17439;48.092;11.842;2023-02-14T14:41:12;96908.06;;;8.04;62.99
30682;BME280;17439;48.092;11.842;2023-02-14T14:43:39;96906.16;;;8.05;63.14
30682;BME280;17439;48.092;11.842;2023-02-14T14:46:09;96899.94;;;8.04;63.34
30682;BME280;17439;48.092;11.842;2023-02-14T14:48:42;96898.56;;;8.02;62.69
30682;BME280;17439;48.092;11.842;2023-02-14T14:51:22;96898.28;;;7.98;62.02
30682;BME280;17439;48.092;11.842;2023-02-14T14:53:58;96892.59;;;7.94;62.49
30682;BME280;17439;48.092;11.842;2023-02-14T14:56:36;96899.91;;;7.99;62.63
30682;BME280;17439;48.092;11.842;2023-02-14T14:59:17;96890.41;;;7.91;62.87
30682;BME280;17439;48.092;11.842;2023-02-14T15:01:44;96889.88;;;7.94;62.78
30682;BME280;17439;48.092;11.842;2023-02-14T15:04:17;96890.69;;;7.95;62.13
30682;BME280;17439;48.092;11.842;2023-02-14T15:06:45;96888.75;;;7.90;62.61
30682;BME280;17439;48.092;11.842;2023-02-14T15:09:21;96894.94;;;7.86;62.47
30682;BME280;17439;48.092;11.842;2023-02-14T15:11:51;96889.25;;;7.82;63.02
30682;BME280;17439;48.092;11.842;2023-02-14T15:14:20;96888.97;;;7.78;63.11
30682;BME280;17439;48.092;11.842;2023-02-14T15:16:54;96883.53;;;7.73;62.87
30682;BME280;17439;48.092;11.842;2023-02-14T15:19:44;96886.16;;;7.68;62.90
30682;BME280;17439;48.092;11.842;2023-02-14T15:22:41;96884.25;;;7.63;62.91